Time,TemperatureF,DewpointF,PressureIn,WindDirection,WindDirectionDegrees,WindSpeedMPH,WindSpeedGustMPH,Humidity,HourlyPrecipIn,Conditions,Clouds,dailyrainin,SoftwareType,DateUTC
2013-02-20 00:05:00,38.2,35.0,29.75,WSW,241,0.0,1.0,88,0.00,,,0.00,Wunderground v.1.15,2013-02-20 08:05:00,
2013-02-20 00:11:00,38.3,35.1,29.75,WSW,241,0.0,1.0,88,0.00,,,0.00,Wunderground v.1.15,2013-02-20 08:11:00,
2013-02-20 00:17:00,38.3,35.1,29.75,SW,231,0.0,1.0,88,0.00,,,0.00,Wunderground v.1.15,2013-02-20 08:17:00,
2013-02-20 00:22:00,38.3,35.1,29.75,SW,231,1.0,1.0,88,0.00,,,0.00,Wunderground v.1.15,2013-02-20 08:22:00,
2013-02-20 00:28:00,38.4,34.9,29.75,SW,225,1.0,1.0,87,0.00,,,0.00,Wunderground v.1.15,2013-02-20 08:28:00,
2013-02-20 00:34:00,38.3,34.8,29.75,SW,223,0.0,1.0,87,0.00,,,0.00,Wunderground v.1.15,2013-02-20 08:34:00,
2013-02-20 00:40:00,38.1,34.6,29.75,SW,214,2.0,2.0,87,0.00,,,0.00,Wunderground v.1.15,2013-02-20 08:40:00,
2013-02-20 00:46:00,38.0,34.5,29.76,SW,220,0.0,2.0,87,0.00,,,0.00,Wunderground v.1.15,2013-02-20 08:46:00,
2013-02-20 00:52:00,37.7,34.2,29.76,SW,220,0.0,1.0,87,0.00,,,0.00,Wunderground v.1.15,2013-02-20 08:52:00,
2013-02-20 00:58:00,37.5,34.0,29.76,SW,220,0.0,1.0,87,0.00,,,0.00,Wunderground v.1.15,2013-02-20 08:58:00,
2013-02-20 01:03:00,37.3,34.1,29.76,SW,220,0.0,0.0,88,0.00,,,0.00,Wunderground v.1.15,2013-02-20 09:03:00,
2013-02-20 01:08:00,37.2,34.0,29.77,SW,220,0.0,0.0,88,0.00,,,0.00,Wunderground v.1.15,2013-02-20 09:08:00,
2013-02-20 01:13:00,37.2,34.0,29.77,SW,220,0.0,0.0,88,0.00,,,0.00,Wunderground v.1.15,2013-02-20 09:13:00,
2013-02-20 01:18:00,37.1,33.9,29.77,SW,220,0.0,0.0,88,0.00,,,0.00,Wunderground v.1.15,2013-02-20 09:18:00,
2013-02-20 01:24:00,36.9,33.7,29.77,SW,220,0.0,0.0,88,0.00,,,0.00,Wunderground v.1.15,2013-02-20 09:24:00,
2013-02-20 01:29:00,36.8,33.9,29.77,SW,220,0.0,0.0,89,0.00,,,0.00,Wunderground v.1.15,2013-02-20 09:29:00,
2013-02-20 01:35:00,36.6,33.7,29.77,SW,220,0.0,0.0,89,0.00,,,0.00,Wunderground v.1.15,2013-02-20 09:35:00,
2013-02-20 01:40:00,36.5,33.6,29.77,South,174,0.0,1.0,89,0.00,,,0.00,Wunderground v.1.15,2013-02-20 09:40:00,
2013-02-20 01:45:00,36.4,33.5,29.77,South,174,0.0,1.0,89,0.00,,,0.00,Wunderground v.1.15,2013-02-20 09:45:00,
2013-02-20 01:50:00,36.3,33.4,29.77,South,174,0.0,0.0,89,0.00,,,0.00,Wunderground v.1.15,2013-02-20 09:50:00,
2013-02-20 01:56:00,36.1,33.2,29.77,South,174,0.0,0.0,89,0.00,,,0.00,Wunderground v.1.15,2013-02-20 09:56:00,
2013-02-20 02:01:00,35.8,32.9,29.77,South,174,0.0,0.0,89,0.00,,,0.00,Wunderground v.1.15,2013-02-20 10:01:00,
2013-02-20 02:06:00,35.5,32.9,29.78,South,174,0.0,0.0,90,0.00,,,0.00,Wunderground v.1.15,2013-02-20 10:06:00,
2013-02-20 02:11:00,35.3,32.7,29.77,South,174,0.0,0.0,90,0.00,,,0.00,Wunderground v.1.15,2013-02-20 10:11:00,
2013-02-20 02:16:00,35.1,32.5,29.77,South,174,0.0,0.0,90,0.00,,,0.00,Wunderground v.1.15,2013-02-20 10:16:00,
2013-02-20 02:21:00,35.0,32.6,29.78,South,174,0.0,0.0,91,0.00,,,0.00,Wunderground v.1.15,2013-02-20 10:21:00,
2013-02-20 02:26:00,34.9,32.5,29.78,South,174,0.0,0.0,91,0.00,,,0.00,Wunderground v.1.15,2013-02-20 10:26:00,
2013-02-20 02:31:00,34.7,32.3,29.78,South,174,0.0,0.0,91,0.00,,,0.00,Wunderground v.1.15,2013-02-20 10:31:00,
2013-02-20 02:36:00,34.5,32.4,29.78,South,174,0.0,0.0,92,0.00,,,0.00,Wunderground v.1.15,2013-02-20 10:36:00,
2013-02-20 02:41:00,34.6,32.5,29.78,South,174,0.0,0.0,92,0.00,,,0.00,Wunderground v.1.15,2013-02-20 10:41:00,
2013-02-20 02:47:00,34.5,32.1,29.78,South,174,0.0,0.0,91,0.00,,,0.00,Wunderground v.1.15,2013-02-20 10:47:00,
2013-02-20 02:52:00,34.3,32.2,29.78,South,174,0.0,0.0,92,0.00,,,0.00,Wunderground v.1.15,2013-02-20 10:52:00,
2013-02-20 02:57:00,34.0,31.6,29.78,South,174,0.0,0.0,91,0.00,,,0.00,Wunderground v.1.15,2013-02-20 10:57:00,
2013-02-20 03:02:00,33.9,31.8,29.78,South,174,0.0,0.0,92,0.00,,,0.00,Wunderground v.1.15,2013-02-20 11:02:00,
2013-02-20 03:07:00,33.8,31.7,29.79,South,174,0.0,0.0,92,0.00,,,0.00,Wunderground v.1.15,2013-02-20 11:07:00,
2013-02-20 03:12:00,33.7,31.6,29.79,South,174,0.0,0.0,92,0.00,,,0.00,Wunderground v.1.15,2013-02-20 11:12:00,
2013-02-20 03:17:00,33.5,31.4,29.79,South,174,0.0,0.0,92,0.00,,,0.00,Wunderground v.1.15,2013-02-20 11:17:00,
2013-02-20 03:22:00,33.3,31.2,29.79,South,174,0.0,0.0,92,0.00,,,0.00,Wunderground v.1.15,2013-02-20 11:22:00,
2013-02-20 03:27:00,33.4,31.6,29.79,South,174,0.0,0.0,93,0.00,,,0.00,Wunderground v.1.15,2013-02-20 11:27:00,
2013-02-20 03:32:00,33.1,31.0,29.79,South,174,0.0,0.0,92,0.00,,,0.00,Wunderground v.1.15,2013-02-20 11:32:00,
2013-02-20 03:37:00,32.9,31.1,29.80,South,174,0.0,0.0,93,0.00,,,0.00,Wunderground v.1.15,2013-02-20 11:37:00,
2013-02-20 03:42:00,32.7,30.9,29.79,South,174,0.0,0.0,93,0.00,,,0.00,Wunderground v.1.15,2013-02-20 11:42:00,
2013-02-20 03:48:00,32.6,30.8,29.80,South,174,0.0,0.0,93,0.00,,,0.00,Wunderground v.1.15,2013-02-20 11:48:00,
2013-02-20 03:53:00,32.4,30.6,29.80,South,174,0.0,0.0,93,0.00,,,0.00,Wunderground v.1.15,2013-02-20 11:53:00,
2013-02-20 03:58:00,32.3,30.5,29.80,South,174,0.0,0.0,93,0.00,,,0.00,Wunderground v.1.15,2013-02-20 11:58:00,
2013-02-20 04:03:00,32.2,30.4,29.80,South,174,0.0,1.0,93,0.00,,,0.00,Wunderground v.1.15,2013-02-20 12:03:00,
2013-02-20 04:08:00,32.3,30.8,29.80,SSW,192,1.0,2.0,94,0.00,,,0.00,Wunderground v.1.15,2013-02-20 12:08:00,
2013-02-20 04:13:00,32.5,31.0,29.80,SSW,192,0.0,0.0,94,0.00,,,0.00,Wunderground v.1.15,2013-02-20 12:13:00,
2013-02-20 04:18:00,32.5,31.0,29.80,SSW,192,0.0,0.0,94,0.00,,,0.00,Wunderground v.1.15,2013-02-20 12:18:00,
2013-02-20 04:23:00,32.3,30.5,29.81,South,188,0.0,1.0,93,0.00,,,0.00,Wunderground v.1.15,2013-02-20 12:23:00,
2013-02-20 04:28:00,32.3,30.8,29.81,SSW,193,0.0,1.0,94,0.00,,,0.00,Wunderground v.1.15,2013-02-20 12:28:00,
2013-02-20 04:34:00,32.1,30.6,29.81,SSW,192,0.0,0.0,94,0.00,,,0.00,Wunderground v.1.15,2013-02-20 12:34:00,
2013-02-20 04:39:00,32.0,30.5,29.81,South,189,0.0,0.0,94,0.00,,,0.00,Wunderground v.1.15,2013-02-20 12:39:00,
2013-02-20 04:44:00,32.1,30.6,29.81,South,189,0.0,0.0,94,0.00,,,0.00,Wunderground v.1.15,2013-02-20 12:44:00,
2013-02-20 04:49:00,32.1,30.6,29.81,South,191,0.0,0.0,94,0.00,,,0.00,Wunderground v.1.15,2013-02-20 12:49:00,
2013-02-20 04:54:00,32.1,30.6,29.81,South,189,0.0,0.0,94,0.00,,,0.00,Wunderground v.1.15,2013-02-20 12:54:00,
2013-02-20 04:59:00,32.2,30.7,29.81,South,191,0.0,0.0,94,0.00,,,0.00,Wunderground v.1.15,2013-02-20 12:59:00,
2013-02-20 05:04:00,32.3,30.8,29.81,South,190,0.0,0.0,94,0.00,,,0.00,Wunderground v.1.15,2013-02-20 13:04:00,
2013-02-20 05:10:00,32.4,30.9,29.82,South,191,0.0,0.0,94,0.00,,,0.00,Wunderground v.1.15,2013-02-20 13:10:00,
2013-02-20 05:15:00,32.1,30.6,29.82,SSW,193,0.0,0.0,94,0.00,,,0.00,Wunderground v.1.15,2013-02-20 13:15:00,
2013-02-20 05:20:00,32.2,30.7,29.82,SSW,192,0.0,0.0,94,0.00,,,0.00,Wunderground v.1.15,2013-02-20 13:20:00,
2013-02-20 05:25:00,32.0,30.5,29.82,SSW,192,0.0,0.0,94,0.00,,,0.00,Wunderground v.1.15,2013-02-20 13:25:00,
2013-02-20 05:30:00,31.7,29.9,29.83,SSW,192,0.0,0.0,93,0.00,,,0.00,Wunderground v.1.15,2013-02-20 13:30:00,
2013-02-20 05:35:00,31.6,30.1,29.83,SSW,192,0.0,0.0,94,0.00,,,0.00,Wunderground v.1.15,2013-02-20 13:35:00,
2013-02-20 05:40:00,31.8,30.3,29.83,South,191,0.0,0.0,94,0.00,,,0.00,Wunderground v.1.15,2013-02-20 13:40:00,
2013-02-20 05:45:00,32.2,30.9,29.83,South,191,0.0,0.0,95,0.00,,,0.00,Wunderground v.1.15,2013-02-20 13:45:00,
2013-02-20 05:50:00,32.1,30.6,29.83,South,191,0.0,0.0,94,0.00,,,0.00,Wunderground v.1.15,2013-02-20 13:50:00,
2013-02-20 05:55:00,31.7,30.2,29.83,SSW,192,0.0,0.0,94,0.00,,,0.00,Wunderground v.1.15,2013-02-20 13:55:00,
2013-02-20 06:01:00,31.4,29.9,29.84,SSW,192,0.0,0.0,94,0.00,,,0.00,Wunderground v.1.15,2013-02-20 14:01:00,
2013-02-20 06:06:00,31.3,29.8,29.83,South,191,0.0,0.0,94,0.00,,,0.00,Wunderground v.1.15,2013-02-20 14:06:00,
2013-02-20 06:11:00,31.2,29.7,29.83,South,190,0.0,0.0,94,0.00,,,0.00,Wunderground v.1.15,2013-02-20 14:11:00,
2013-02-20 06:16:00,31.1,29.6,29.83,South,191,0.0,0.0,94,0.00,,,0.00,Wunderground v.1.15,2013-02-20 14:16:00,
2013-02-20 06:21:00,31.3,29.8,29.83,South,190,0.0,0.0,94,0.00,,,0.00,Wunderground v.1.15,2013-02-20 14:21:00,
2013-02-20 06:26:00,31.3,29.8,29.83,SSW,192,0.0,0.0,94,0.00,,,0.00,Wunderground v.1.15,2013-02-20 14:26:00,
2013-02-20 06:31:00,31.3,29.8,29.84,South,191,0.0,0.0,94,0.00,,,0.00,Wunderground v.1.15,2013-02-20 14:31:00,
2013-02-20 06:36:00,31.2,29.7,29.84,South,191,0.0,0.0,94,0.00,,,0.00,Wunderground v.1.15,2013-02-20 14:36:00,
2013-02-20 06:41:00,30.9,29.4,29.84,South,191,0.0,0.0,94,0.00,,,0.00,Wunderground v.1.15,2013-02-20 14:41:00,
2013-02-20 06:47:00,30.7,29.2,29.84,South,191,0.0,0.0,94,0.00,,,0.00,Wunderground v.1.15,2013-02-20 14:47:00,
2013-02-20 06:52:00,30.8,29.5,29.84,West,269,0.0,0.0,95,0.00,,,0.00,Wunderground v.1.15,2013-02-20 14:52:00,
2013-02-20 06:57:00,30.9,29.6,29.84,West,268,0.0,1.0,95,0.00,,,0.00,Wunderground v.1.15,2013-02-20 14:57:00,
2013-02-20 07:02:00,30.8,29.3,29.84,West,267,0.0,0.0,94,0.00,,,0.00,Wunderground v.1.15,2013-02-20 15:02:00,
2013-02-20 07:07:00,30.8,29.3,29.84,West,267,0.0,0.0,94,0.00,,,0.00,Wunderground v.1.15,2013-02-20 15:07:00,
2013-02-20 07:12:00,31.0,29.7,29.84,West,267,0.0,1.0,95,0.00,,,0.00,Wunderground v.1.15,2013-02-20 15:12:00,
2013-02-20 07:17:00,31.3,30.0,29.85,West,267,0.0,1.0,95,0.00,,,0.00,Wunderground v.1.15,2013-02-20 15:17:00,
2013-02-20 07:22:00,31.6,30.3,29.85,West,268,0.0,0.0,95,0.00,,,0.00,Wunderground v.1.15,2013-02-20 15:22:00,
2013-02-20 07:28:00,32.0,30.7,29.86,West,267,0.0,0.0,95,0.00,,,0.00,Wunderground v.1.15,2013-02-20 15:28:00,
2013-02-20 07:33:00,32.6,31.3,29.86,West,267,0.0,0.0,95,0.00,,,0.00,Wunderground v.1.15,2013-02-20 15:33:00,
2013-02-20 07:38:00,33.1,31.6,29.87,West,268,0.0,0.0,94,0.00,,,0.00,Wunderground v.1.15,2013-02-20 15:38:00,
2013-02-20 07:43:00,33.1,31.6,29.87,West,267,0.0,0.0,94,0.00,,,0.00,Wunderground v.1.15,2013-02-20 15:43:00,
2013-02-20 07:48:00,33.9,32.6,29.87,West,268,0.0,0.0,95,0.00,,,0.00,Wunderground v.1.15,2013-02-20 15:48:00,
2013-02-20 07:53:00,34.4,32.9,29.88,West,267,0.0,0.0,94,0.00,,,0.00,Wunderground v.1.15,2013-02-20 15:53:00,
2013-02-20 07:58:00,34.8,33.2,29.88,West,268,0.0,0.0,94,0.00,,,0.00,Wunderground v.1.15,2013-02-20 15:58:00,
2013-02-20 08:03:00,35.2,33.4,29.88,West,267,0.0,0.0,93,0.00,,,0.00,Wunderground v.1.15,2013-02-20 16:03:00,
2013-02-20 08:08:00,35.7,33.9,29.88,West,268,0.0,0.0,93,0.00,,,0.00,Wunderground v.1.15,2013-02-20 16:08:00,
2013-02-20 08:13:00,36.4,34.3,29.89,West,267,0.0,0.0,92,0.00,,,0.00,Wunderground v.1.15,2013-02-20 16:13:00,
2013-02-20 08:18:00,37.0,34.6,29.89,West,267,0.0,0.0,91,0.00,,,0.00,Wunderground v.1.15,2013-02-20 16:18:00,
2013-02-20 08:23:00,37.6,34.9,29.89,West,267,0.0,0.0,90,0.00,,,0.00,Wunderground v.1.15,2013-02-20 16:23:00,
2013-02-20 08:28:00,37.7,34.5,29.89,West,269,0.0,0.0,88,0.00,,,0.00,Wunderground v.1.15,2013-02-20 16:28:00,
2013-02-20 08:34:00,38.0,34.8,29.89,SW,227,0.0,0.0,88,0.00,,,0.00,Wunderground v.1.15,2013-02-20 16:34:00,
2013-02-20 08:39:00,38.8,35.0,29.90,SW,229,1.0,1.0,86,0.00,,,0.00,Wunderground v.1.15,2013-02-20 16:39:00,
2013-02-20 08:44:00,39.5,35.7,29.90,South,175,0.0,1.0,86,0.00,,,0.00,Wunderground v.1.15,2013-02-20 16:44:00,
2013-02-20 08:49:00,39.9,35.5,29.90,WNW,288,0.0,2.0,84,0.00,,,0.00,Wunderground v.1.15,2013-02-20 16:49:00,
2013-02-20 08:54:00,40.5,35.7,29.90,WNW,289,0.0,0.0,83,0.00,,,0.00,Wunderground v.1.15,2013-02-20 16:54:00,
2013-02-20 08:59:00,40.9,35.8,29.90,SSE,162,1.0,3.0,82,0.00,,,0.00,Wunderground v.1.15,2013-02-20 16:59:00,
2013-02-20 09:05:00,42.1,36.4,29.90,SSE,162,0.0,1.0,80,0.00,,,0.00,Wunderground v.1.15,2013-02-20 17:05:00,
2013-02-20 09:10:00,42.4,35.7,29.90,SW,228,0.0,0.0,77,0.00,,,0.00,Wunderground v.1.15,2013-02-20 17:10:00,
2013-02-20 09:15:00,42.8,35.1,29.90,SW,232,0.0,2.0,74,0.00,,,0.00,Wunderground v.1.15,2013-02-20 17:15:00,
2013-02-20 09:20:00,43.2,36.1,29.90,SW,214,1.0,1.0,76,0.00,,,0.00,Wunderground v.1.15,2013-02-20 17:20:00,
2013-02-20 09:25:00,43.6,35.2,29.90,SW,236,1.0,3.0,72,0.00,,,0.00,Wunderground v.1.15,2013-02-20 17:25:00,
2013-02-20 09:30:00,44.1,36.3,29.90,South,185,1.0,1.0,74,0.00,,,0.00,Wunderground v.1.15,2013-02-20 17:30:00,
2013-02-20 09:36:00,44.6,35.4,29.90,WSW,255,3.0,4.0,70,0.00,,,0.00,Wunderground v.1.15,2013-02-20 17:36:00,
2013-02-20 09:41:00,44.6,35.8,29.90,WSW,241,0.0,2.0,71,0.00,,,0.00,Wunderground v.1.15,2013-02-20 17:41:00,
2013-02-20 09:46:00,45.2,35.3,29.90,SW,219,1.0,5.0,68,0.00,,,0.00,Wunderground v.1.15,2013-02-20 17:46:00,
2013-02-20 09:51:00,45.9,35.9,29.90,SSW,208,0.0,2.0,68,0.00,,,0.00,Wunderground v.1.15,2013-02-20 17:51:00,
2013-02-20 09:56:00,46.6,35.1,29.90,WSW,252,2.0,3.0,64,0.00,,,0.00,Wunderground v.1.15,2013-02-20 17:56:00,
2013-02-20 10:01:00,47.1,35.1,29.90,SSW,212,1.0,3.0,63,0.00,,,0.00,Wunderground v.1.15,2013-02-20 18:01:00,
2013-02-20 10:06:00,47.4,35.0,29.90,SW,224,2.0,4.0,62,0.00,,,0.00,Wunderground v.1.15,2013-02-20 18:06:00,
2013-02-20 10:11:00,47.7,34.5,29.91,West,271,3.0,5.0,60,0.00,,,0.00,Wunderground v.1.15,2013-02-20 18:11:00,
2013-02-20 10:17:00,47.8,34.6,29.91,WSW,250,3.0,5.0,60,0.00,,,0.00,Wunderground v.1.15,2013-02-20 18:17:00,
2013-02-20 10:22:00,48.1,34.4,29.91,WSW,239,5.0,5.0,59,0.00,,,0.00,Wunderground v.1.15,2013-02-20 18:22:00,
2013-02-20 10:27:00,48.3,34.2,29.91,WSW,237,6.0,8.0,58,0.00,,,0.00,Wunderground v.1.15,2013-02-20 18:27:00,
2013-02-20 10:32:00,48.2,34.5,29.91,WSW,254,4.0,5.0,59,0.00,,,0.00,Wunderground v.1.15,2013-02-20 18:32:00,
2013-02-20 10:37:00,48.1,34.0,29.91,WSW,257,5.0,7.0,58,0.00,,,0.00,Wunderground v.1.15,2013-02-20 18:37:00,
2013-02-20 10:42:00,48.2,33.7,29.91,WSW,256,2.0,5.0,57,0.00,,,0.00,Wunderground v.1.15,2013-02-20 18:42:00,
2013-02-20 10:47:00,48.3,34.6,29.92,West,263,6.0,7.0,59,0.00,,,0.00,Wunderground v.1.15,2013-02-20 18:47:00,
2013-02-20 10:52:00,48.5,34.4,29.92,West,263,6.0,6.0,58,0.00,,,0.00,Wunderground v.1.15,2013-02-20 18:52:00,
2013-02-20 10:57:00,48.7,34.6,29.92,SW,224,2.0,6.0,58,0.00,,,0.00,Wunderground v.1.15,2013-02-20 18:57:00,
2013-02-20 11:02:00,49.5,34.9,29.91,SW,226,4.0,6.0,57,0.00,,,0.00,Wunderground v.1.15,2013-02-20 19:02:00,
2013-02-20 11:08:00,49.9,34.8,29.91,WNW,285,2.0,8.0,56,0.00,,,0.00,Wunderground v.1.15,2013-02-20 19:08:00,
2013-02-20 11:13:00,49.9,34.8,29.91,SW,223,5.0,6.0,56,0.00,,,0.00,Wunderground v.1.15,2013-02-20 19:13:00,
2013-02-20 11:18:00,50.3,35.2,29.91,SSW,205,1.0,6.0,56,0.00,,,0.00,Wunderground v.1.15,2013-02-20 19:18:00,
2013-02-20 11:23:00,50.6,35.0,29.91,West,279,6.0,6.0,55,0.00,,,0.00,Wunderground v.1.15,2013-02-20 19:23:00,
2013-02-20 11:28:00,50.8,35.7,29.91,WSW,252,2.0,6.0,56,0.00,,,0.00,Wunderground v.1.15,2013-02-20 19:28:00,
2013-02-20 11:33:00,51.0,35.4,29.91,West,265,2.0,5.0,55,0.00,,,0.00,Wunderground v.1.15,2013-02-20 19:33:00,
2013-02-20 11:38:00,51.4,36.2,29.91,West,259,2.0,7.0,56,0.00,,,0.00,Wunderground v.1.15,2013-02-20 19:38:00,
2013-02-20 11:43:00,51.9,36.7,29.91,West,272,3.0,6.0,56,0.00,,,0.00,Wunderground v.1.15,2013-02-20 19:43:00,
2013-02-20 11:48:00,51.9,36.2,29.91,West,276,5.0,9.0,55,0.00,,,0.00,Wunderground v.1.15,2013-02-20 19:48:00,
2013-02-20 11:53:00,52.0,36.3,29.91,WSW,254,4.0,10.0,55,0.00,,,0.00,Wunderground v.1.15,2013-02-20 19:53:00,
2013-02-20 11:58:00,52.2,35.6,29.91,WSW,247,4.0,10.0,53,0.00,,,0.00,Wunderground v.1.15,2013-02-20 19:58:00,
2013-02-20 12:03:00,52.2,36.0,29.91,WNW,285,5.0,8.0,54,0.00,,,0.00,Wunderground v.1.15,2013-02-20 20:03:00,
2013-02-20 12:08:00,52.6,36.4,29.90,WSW,250,2.0,8.0,54,0.00,,,0.00,Wunderground v.1.15,2013-02-20 20:08:00,
2013-02-20 12:13:00,53.5,36.8,29.90,West,270,1.0,4.0,53,0.00,,,0.00,Wunderground v.1.15,2013-02-20 20:13:00,
2013-02-20 12:18:00,53.4,36.2,29.90,SW,220,2.0,7.0,52,0.00,,,0.00,Wunderground v.1.15,2013-02-20 20:18:00,
2013-02-20 12:24:00,53.6,36.4,29.89,WSW,243,4.0,6.0,52,0.00,,,0.00,Wunderground v.1.15,2013-02-20 20:24:00,
2013-02-20 12:29:00,53.8,35.6,29.89,WSW,240,3.0,9.0,50,0.00,,,0.00,Wunderground v.1.15,2013-02-20 20:29:00,
2013-02-20 12:34:00,53.9,35.7,29.89,WSW,256,1.0,7.0,50,0.00,,,0.00,Wunderground v.1.15,2013-02-20 20:34:00,
2013-02-20 12:39:00,54.3,36.0,29.89,WSW,240,6.0,8.0,50,0.00,,,0.00,Wunderground v.1.15,2013-02-20 20:39:00,
2013-02-20 12:44:00,54.4,34.0,29.90,WSW,250,0.0,10.0,46,0.00,,,0.00,Wunderground v.1.15,2013-02-20 20:44:00,
2013-02-20 12:49:00,54.6,34.8,29.89,West,259,3.0,10.0,47,0.00,,,0.00,Wunderground v.1.15,2013-02-20 20:49:00,
2013-02-20 12:54:00,54.8,34.4,29.89,West,278,1.0,9.0,46,0.00,,,0.00,Wunderground v.1.15,2013-02-20 20:54:00,
2013-02-20 12:59:00,55.3,35.9,29.89,WSW,240,5.0,9.0,48,0.00,,,0.00,Wunderground v.1.15,2013-02-20 20:59:00,
2013-02-20 13:05:00,55.4,33.8,29.89,West,269,2.0,12.0,44,0.00,,,0.00,Wunderground v.1.15,2013-02-20 21:05:00,
2013-02-20 13:10:00,55.7,33.5,29.89,West,277,3.0,4.0,43,0.00,,,0.00,Wunderground v.1.15,2013-02-20 21:10:00,
2013-02-20 13:15:00,56.0,33.8,29.89,WSW,250,4.0,6.0,43,0.00,,,0.00,Wunderground v.1.15,2013-02-20 21:15:00,
2013-02-20 13:20:00,56.1,33.3,29.89,WSW,246,4.0,10.0,42,0.00,,,0.00,Wunderground v.1.15,2013-02-20 21:20:00,
2013-02-20 13:25:00,56.4,34.7,29.88,WNW,292,4.0,10.0,44,0.00,,,0.00,Wunderground v.1.15,2013-02-20 21:25:00,
2013-02-20 13:30:00,57.0,32.9,29.88,SW,233,4.0,6.0,40,0.00,,,0.00,Wunderground v.1.15,2013-02-20 21:30:00,
2013-02-20 13:35:00,56.3,32.3,29.89,West,281,7.0,10.0,40,0.00,,,0.00,Wunderground v.1.15,2013-02-20 21:35:00,
2013-02-20 13:41:00,56.4,33.0,29.89,West,266,1.0,5.0,41,0.00,,,0.00,Wunderground v.1.15,2013-02-20 21:41:00,
2013-02-20 13:46:00,56.6,33.2,29.89,West,278,3.0,8.0,41,0.00,,,0.00,Wunderground v.1.15,2013-02-20 21:46:00,
2013-02-20 13:51:00,56.8,32.1,29.88,West,269,3.0,7.0,39,0.00,,,0.00,Wunderground v.1.15,2013-02-20 21:51:00,
2013-02-20 13:56:00,57.1,33.6,29.88,West,278,4.0,9.0,41,0.00,,,0.00,Wunderground v.1.15,2013-02-20 21:56:00,
2013-02-20 14:01:00,57.9,34.9,29.87,WSW,255,3.0,3.0,42,0.00,,,0.00,Wunderground v.1.15,2013-02-20 22:01:00,
2013-02-20 14:06:00,57.5,34.6,29.88,West,278,1.0,8.0,42,0.00,,,0.00,Wunderground v.1.15,2013-02-20 22:06:00,
2013-02-20 14:12:00,57.6,34.7,29.88,West,268,4.0,7.0,42,0.00,,,0.00,Wunderground v.1.15,2013-02-20 22:12:00,
2013-02-20 14:17:00,57.0,35.3,29.88,West,274,2.0,9.0,44,0.00,,,0.00,Wunderground v.1.15,2013-02-20 22:17:00,
2013-02-20 14:22:00,57.0,35.9,29.87,WNW,285,2.0,5.0,45,0.00,,,0.00,Wunderground v.1.15,2013-02-20 22:22:00,
2013-02-20 14:27:00,56.9,35.2,29.87,South,189,4.0,8.0,44,0.00,,,0.00,Wunderground v.1.15,2013-02-20 22:27:00,
2013-02-20 14:32:00,56.9,34.0,29.87,WNW,285,6.0,12.0,42,0.00,,,0.00,Wunderground v.1.15,2013-02-20 22:32:00,
2013-02-20 14:37:00,56.8,35.1,29.88,West,264,8.0,12.0,44,0.00,,,0.00,Wunderground v.1.15,2013-02-20 22:37:00,
2013-02-20 14:42:00,57.0,34.7,29.87,West,270,2.0,5.0,43,0.00,,,0.00,Wunderground v.1.15,2013-02-20 22:42:00,
2013-02-20 14:47:00,57.0,35.9,29.87,WSW,243,4.0,8.0,45,0.00,,,0.00,Wunderground v.1.15,2013-02-20 22:47:00,
2013-02-20 14:52:00,57.1,35.9,29.87,West,281,3.0,6.0,45,0.00,,,0.00,Wunderground v.1.15,2013-02-20 22:52:00,
2013-02-20 14:57:00,57.1,34.8,29.87,West,259,6.0,8.0,43,0.00,,,0.00,Wunderground v.1.15,2013-02-20 22:57:00,
2013-02-20 15:02:00,57.1,35.4,29.87,SSW,208,4.0,6.0,44,0.00,,,0.00,Wunderground v.1.15,2013-02-20 23:02:00,
2013-02-20 15:07:00,57.5,36.3,29.87,WNW,285,2.0,10.0,45,0.00,,,0.00,Wunderground v.1.15,2013-02-20 23:07:00,
2013-02-20 15:13:00,57.4,35.6,29.87,West,264,6.0,8.0,44,0.00,,,0.00,Wunderground v.1.15,2013-02-20 23:13:00,
2013-02-20 15:18:00,57.7,37.0,29.87,WSW,246,1.0,8.0,46,0.00,,,0.00,Wunderground v.1.15,2013-02-20 23:18:00,
2013-02-20 15:23:00,58.1,36.3,29.88,SW,230,4.0,4.0,44,0.00,,,0.00,Wunderground v.1.15,2013-02-20 23:23:00,
2013-02-20 15:28:00,58.0,36.2,29.87,West,281,2.0,8.0,44,0.00,,,0.00,Wunderground v.1.15,2013-02-20 23:28:00,
2013-02-20 15:33:00,58.2,35.2,29.87,SW,227,2.0,6.0,42,0.00,,,0.00,Wunderground v.1.15,2013-02-20 23:33:00,
2013-02-20 15:38:00,58.6,36.2,29.87,WNW,288,3.0,6.0,43,0.00,,,0.00,Wunderground v.1.15,2013-02-20 23:38:00,
2013-02-20 15:43:00,58.5,35.5,29.88,NNW,334,2.0,9.0,42,0.00,,,0.00,Wunderground v.1.15,2013-02-20 23:43:00,
2013-02-20 15:48:00,58.0,35.6,29.88,NW,307,6.0,9.0,43,0.00,,,0.00,Wunderground v.1.15,2013-02-20 23:48:00,
2013-02-20 15:54:00,57.6,35.8,29.88,WSW,252,5.0,6.0,44,0.00,,,0.00,Wunderground v.1.15,2013-02-20 23:54:00,
2013-02-20 15:59:00,57.9,36.1,29.88,West,265,1.0,7.0,44,0.00,,,0.00,Wunderground v.1.15,2013-02-20 23:59:00,
2013-02-20 16:04:00,57.9,36.1,29.88,West,271,4.0,6.0,44,0.00,,,0.00,Wunderground v.1.15,2013-02-21 00:04:00,
2013-02-20 16:09:00,58.1,35.1,29.88,WSW,252,2.0,7.0,42,0.00,,,0.00,Wunderground v.1.15,2013-02-21 00:09:00,
2013-02-20 16:14:00,58.1,36.9,29.88,WNW,285,3.0,7.0,45,0.00,,,0.00,Wunderground v.1.15,2013-02-21 00:14:00,
2013-02-20 16:19:00,57.6,39.6,29.88,SSW,199,8.0,9.0,51,0.00,,,0.00,Wunderground v.1.15,2013-02-21 00:19:00,
2013-02-20 16:24:00,57.0,40.0,29.88,SW,224,4.0,9.0,53,0.00,,,0.00,Wunderground v.1.15,2013-02-21 00:24:00,
2013-02-20 16:29:00,56.5,40.0,29.88,SW,226,9.0,10.0,54,0.00,,,0.00,Wunderground v.1.15,2013-02-21 00:29:00,
2013-02-20 16:34:00,56.1,40.1,29.88,SSW,199,6.0,10.0,55,0.00,,,0.00,Wunderground v.1.15,2013-02-21 00:34:00,
2013-02-20 16:39:00,56.1,40.1,29.89,SSW,196,8.0,10.0,55,0.00,,,0.00,Wunderground v.1.15,2013-02-21 00:39:00,
2013-02-20 16:45:00,56.1,40.1,29.89,SW,220,2.0,6.0,55,0.00,,,0.00,Wunderground v.1.15,2013-02-21 00:45:00,
2013-02-20 16:50:00,55.9,40.4,29.89,SSW,208,3.0,4.0,56,0.00,,,0.00,Wunderground v.1.15,2013-02-21 00:50:00,
2013-02-20 16:55:00,55.7,40.7,29.89,SSW,198,4.0,6.0,57,0.00,,,0.00,Wunderground v.1.15,2013-02-21 00:55:00,
2013-02-20 17:00:00,55.7,40.7,29.89,SSW,199,6.0,6.0,57,0.00,,,0.00,Wunderground v.1.15,2013-02-21 01:00:00,
2013-02-20 17:05:00,55.2,40.2,29.89,SSW,212,5.0,9.0,57,0.00,,,0.00,Wunderground v.1.15,2013-02-21 01:05:00,
2013-02-20 17:10:00,54.5,40.5,29.89,SW,219,2.0,6.0,59,0.00,,,0.00,Wunderground v.1.15,2013-02-21 01:10:00,
2013-02-20 17:15:00,54.1,40.5,29.89,WSW,237,3.0,6.0,60,0.00,,,0.00,Wunderground v.1.15,2013-02-21 01:15:00,
2013-02-20 17:20:00,53.7,40.6,29.89,SSW,210,1.0,4.0,61,0.00,,,0.00,Wunderground v.1.15,2013-02-21 01:20:00,
2013-02-20 17:25:00,53.7,40.6,29.89,SSW,205,2.0,4.0,61,0.00,,,0.00,Wunderground v.1.15,2013-02-21 01:25:00,
2013-02-20 17:31:00,53.7,40.6,29.89,SSW,210,5.0,5.0,61,0.00,,,0.00,Wunderground v.1.15,2013-02-21 01:31:00,
2013-02-20 17:36:00,53.4,40.7,29.89,SW,214,4.0,5.0,62,0.00,,,0.00,Wunderground v.1.15,2013-02-21 01:36:00,
2013-02-20 17:41:00,52.7,40.9,29.90,SSW,203,5.0,7.0,64,0.00,,,0.00,Wunderground v.1.15,2013-02-21 01:41:00,
2013-02-20 17:46:00,51.9,41.3,29.90,SSW,196,4.0,7.0,67,0.00,,,0.00,Wunderground v.1.15,2013-02-21 01:46:00,
2013-02-20 17:51:00,51.2,41.4,29.90,South,179,4.0,5.0,69,0.00,,,0.00,Wunderground v.1.15,2013-02-21 01:51:00,
2013-02-20 17:56:00,50.7,41.3,29.90,SW,232,3.0,6.0,70,0.00,,,0.00,Wunderground v.1.15,2013-02-21 01:56:00,
2013-02-20 18:01:00,50.3,41.6,29.90,SW,220,2.0,6.0,72,0.00,,,0.00,Wunderground v.1.15,2013-02-21 02:01:00,
2013-02-20 18:07:00,49.9,41.9,29.90,South,188,3.0,9.0,74,0.00,,,0.00,Wunderground v.1.15,2013-02-21 02:07:00,
2013-02-20 18:12:00,49.6,41.7,29.91,SW,224,5.0,6.0,74,0.00,,,0.00,Wunderground v.1.15,2013-02-21 02:12:00,
2013-02-20 18:17:00,49.2,41.6,29.91,SW,226,1.0,6.0,75,0.00,,,0.00,Wunderground v.1.15,2013-02-21 02:17:00,
2013-02-20 18:22:00,48.9,41.7,29.91,SSW,202,3.0,5.0,76,0.00,,,0.00,Wunderground v.1.15,2013-02-21 02:22:00,
2013-02-20 18:27:00,48.7,41.5,29.92,SSW,206,2.0,5.0,76,0.00,,,0.00,Wunderground v.1.15,2013-02-21 02:27:00,
2013-02-20 18:32:00,48.5,41.6,29.92,South,176,2.0,3.0,77,0.00,,,0.00,Wunderground v.1.15,2013-02-21 02:32:00,
2013-02-20 18:37:00,48.3,41.8,29.92,South,169,2.0,7.0,78,0.00,,,0.00,Wunderground v.1.15,2013-02-21 02:37:00,
2013-02-20 18:43:00,48.1,41.6,29.92,SW,219,3.0,5.0,78,0.00,,,0.00,Wunderground v.1.15,2013-02-21 02:43:00,
2013-02-20 18:48:00,47.9,41.7,29.92,SSW,192,3.0,6.0,79,0.00,,,0.00,Wunderground v.1.15,2013-02-21 02:48:00,
2013-02-20 18:53:00,47.7,41.5,29.92,South,188,2.0,5.0,79,0.00,,,0.00,Wunderground v.1.15,2013-02-21 02:53:00,
2013-02-20 18:58:00,47.5,41.6,29.92,SW,229,2.0,7.0,80,0.00,,,0.00,Wunderground v.1.15,2013-02-21 02:58:00,
2013-02-20 19:03:00,47.3,41.8,29.92,SSE,147,2.0,9.0,81,0.00,,,0.00,Wunderground v.1.15,2013-02-21 03:03:00,
2013-02-20 19:08:00,47.2,42.0,29.92,SSE,165,1.0,9.0,82,0.00,,,0.00,Wunderground v.1.15,2013-02-21 03:08:00,
2013-02-20 19:13:00,47.0,42.1,29.92,SSW,192,4.0,4.0,83,0.00,,,0.00,Wunderground v.1.15,2013-02-21 03:13:00,
2013-02-20 19:18:00,46.9,42.0,29.92,SSW,198,2.0,5.0,83,0.00,,,0.00,Wunderground v.1.15,2013-02-21 03:18:00,
2013-02-20 19:23:00,46.7,42.1,29.93,SW,221,1.0,4.0,84,0.00,,,0.00,Wunderground v.1.15,2013-02-21 03:23:00,
2013-02-20 19:28:00,46.6,42.0,29.93,South,181,3.0,4.0,84,0.00,,,0.00,Wunderground v.1.15,2013-02-21 03:28:00,
2013-02-20 19:33:00,46.5,41.9,29.93,South,184,7.0,7.0,84,0.00,,,0.00,Wunderground v.1.15,2013-02-21 03:33:00,
2013-02-20 19:38:00,46.4,41.8,29.93,SW,223,3.0,7.0,84,0.00,,,0.00,Wunderground v.1.15,2013-02-21 03:38:00,
2013-02-20 19:43:00,46.3,41.7,29.93,SSE,150,2.0,5.0,84,0.00,,,0.00,Wunderground v.1.15,2013-02-21 03:43:00,
2013-02-20 19:49:00,46.1,41.5,29.93,SSW,201,1.0,5.0,84,0.00,,,0.00,Wunderground v.1.15,2013-02-21 03:49:00,
2013-02-20 19:54:00,46.0,41.7,29.93,SSE,165,4.0,4.0,85,0.00,,,0.00,Wunderground v.1.15,2013-02-21 03:54:00,
2013-02-20 19:59:00,45.9,41.6,29.93,SSW,207,4.0,5.0,85,0.00,,,0.00,Wunderground v.1.15,2013-02-21 03:59:00,
2013-02-20 20:04:00,45.9,41.6,29.94,SSW,212,0.0,4.0,85,0.00,,,0.00,Wunderground v.1.15,2013-02-21 04:04:00,
2013-02-20 20:09:00,45.8,41.5,29.94,SW,227,0.0,5.0,85,0.00,,,0.00,Wunderground v.1.15,2013-02-21 04:09:00,
2013-02-20 20:14:00,45.8,41.5,29.94,SW,227,1.0,5.0,85,0.00,,,0.00,Wunderground v.1.15,2013-02-21 04:14:00,
2013-02-20 20:19:00,45.8,41.5,29.94,SW,219,0.0,5.0,85,0.00,,,0.00,Wunderground v.1.15,2013-02-21 04:19:00,
2013-02-20 20:24:00,45.7,41.4,29.95,SSW,198,1.0,4.0,85,0.00,,,0.00,Wunderground v.1.15,2013-02-21 04:24:00,
2013-02-20 20:29:00,45.5,41.6,29.95,SSW,212,1.0,4.0,86,0.00,,,0.00,Wunderground v.1.15,2013-02-21 04:29:00,
2013-02-20 20:34:00,45.4,41.5,29.95,SSW,210,0.0,3.0,86,0.00,,,0.00,Wunderground v.1.15,2013-02-21 04:34:00,
2013-02-20 20:39:00,45.3,41.4,29.95,SW,228,0.0,4.0,86,0.00,,,0.00,Wunderground v.1.15,2013-02-21 04:39:00,
2013-02-20 20:44:00,45.1,41.2,29.95,SSW,206,1.0,2.0,86,0.00,,,0.00,Wunderground v.1.15,2013-02-21 04:44:00,
2013-02-20 20:50:00,44.9,41.0,29.95,SSW,199,2.0,2.0,86,0.00,,,0.00,Wunderground v.1.15,2013-02-21 04:50:00,
2013-02-20 20:55:00,44.8,41.2,29.95,SSW,205,2.0,3.0,87,0.00,,,0.00,Wunderground v.1.15,2013-02-21 04:55:00,
2013-02-20 21:00:00,44.7,41.1,29.95,SSW,199,1.0,1.0,87,0.00,,,0.00,Wunderground v.1.15,2013-02-21 05:00:00,
2013-02-20 21:06:00,44.7,41.1,29.95,South,186,0.0,4.0,87,0.00,,,0.00,Wunderground v.1.15,2013-02-21 05:06:00,
2013-02-20 21:11:00,44.5,40.9,29.95,SSW,201,0.0,1.0,87,0.00,,,0.00,Wunderground v.1.15,2013-02-21 05:11:00,
2013-02-20 21:16:00,44.4,41.1,29.96,WSW,244,0.0,1.0,88,0.00,,,0.00,Wunderground v.1.15,2013-02-21 05:16:00,
2013-02-20 21:21:00,44.3,41.0,29.95,SW,223,0.0,1.0,88,0.00,,,0.00,Wunderground v.1.15,2013-02-21 05:21:00,
2013-02-20 21:26:00,44.2,40.9,29.95,SW,223,0.0,1.0,88,0.00,,,0.00,Wunderground v.1.15,2013-02-21 05:26:00,
2013-02-20 21:31:00,43.9,40.6,29.95,SW,223,0.0,0.0,88,0.00,,,0.00,Wunderground v.1.15,2013-02-21 05:31:00,
2013-02-20 21:36:00,43.6,40.3,29.95,SW,223,0.0,0.0,88,0.00,,,0.00,Wunderground v.1.15,2013-02-21 05:36:00,
2013-02-20 21:41:00,43.3,40.0,29.96,SW,223,0.0,0.0,88,0.00,,,0.00,Wunderground v.1.15,2013-02-21 05:41:00,
2013-02-20 21:46:00,43.0,40.0,29.96,SW,223,0.0,0.0,89,0.00,,,0.00,Wunderground v.1.15,2013-02-21 05:46:00,
2013-02-20 21:51:00,42.8,39.8,29.96,SW,223,0.0,0.0,89,0.00,,,0.00,Wunderground v.1.15,2013-02-21 05:51:00,
2013-02-20 21:57:00,42.4,39.4,29.97,SW,223,0.0,0.0,89,0.00,,,0.00,Wunderground v.1.15,2013-02-21 05:57:00,
2013-02-20 22:02:00,41.9,38.9,29.97,SW,223,0.0,0.0,89,0.00,,,0.00,Wunderground v.1.15,2013-02-21 06:02:00,
2013-02-20 22:07:00,41.4,38.4,29.97,SW,223,0.0,0.0,89,0.00,,,0.00,Wunderground v.1.15,2013-02-21 06:07:00,
2013-02-20 22:13:00,41.0,38.0,29.97,SW,223,0.0,0.0,89,0.00,,,0.00,Wunderground v.1.15,2013-02-21 06:13:00,
2013-02-20 22:18:00,40.8,38.1,29.97,SW,223,0.0,0.0,90,0.00,,,0.00,Wunderground v.1.15,2013-02-21 06:18:00,
2013-02-20 22:23:00,40.8,38.4,29.97,SW,223,0.0,0.0,91,0.00,,,0.00,Wunderground v.1.15,2013-02-21 06:23:00,
2013-02-20 22:28:00,40.6,37.9,29.97,SW,223,0.0,0.0,90,0.00,,,0.00,Wunderground v.1.15,2013-02-21 06:28:00,
2013-02-20 22:33:00,40.5,38.1,29.97,SW,223,0.0,0.0,91,0.00,,,0.00,Wunderground v.1.15,2013-02-21 06:33:00,
2013-02-20 22:38:00,40.5,38.1,29.97,SW,223,0.0,0.0,91,0.00,,,0.00,Wunderground v.1.15,2013-02-21 06:38:00,
2013-02-20 22:44:00,40.2,37.8,29.97,SW,223,0.0,0.0,91,0.00,,,0.00,Wunderground v.1.15,2013-02-21 06:44:00,
2013-02-20 22:49:00,39.9,37.5,29.97,SW,223,0.0,0.0,91,0.00,,,0.00,Wunderground v.1.15,2013-02-21 06:49:00,
2013-02-20 22:54:00,39.8,37.4,29.97,SW,222,0.0,0.0,91,0.00,,,0.00,Wunderground v.1.15,2013-02-21 06:54:00,
2013-02-20 23:00:00,39.8,37.7,29.97,SW,223,0.0,0.0,92,0.00,,,0.00,Wunderground v.1.15,2013-02-21 07:00:00,
2013-02-20 23:05:00,39.9,37.8,29.97,SW,223,0.0,0.0,92,0.00,,,0.00,Wunderground v.1.15,2013-02-21 07:05:00,
2013-02-20 23:10:00,39.8,37.4,29.97,SW,223,0.0,0.0,91,0.00,,,0.00,Wunderground v.1.15,2013-02-21 07:10:00,
2013-02-20 23:15:00,39.7,37.6,29.96,SW,224,0.0,0.0,92,0.00,,,0.00,Wunderground v.1.15,2013-02-21 07:15:00,
2013-02-20 23:20:00,39.6,37.5,29.96,SW,216,0.0,0.0,92,0.00,,,0.00,Wunderground v.1.15,2013-02-21 07:20:00,
2013-02-20 23:25:00,39.8,37.7,29.96,SW,216,0.0,0.0,92,0.00,,,0.00,Wunderground v.1.15,2013-02-21 07:25:00,
2013-02-20 23:30:00,40.1,38.2,29.97,SW,216,0.0,0.0,93,0.00,,,0.00,Wunderground v.1.15,2013-02-21 07:30:00,
2013-02-20 23:35:00,40.4,38.5,29.97,SSW,200,0.0,1.0,93,0.00,,,0.00,Wunderground v.1.15,2013-02-21 07:35:00,
2013-02-20 23:40:00,40.4,38.3,29.96,SSW,200,0.0,0.0,92,0.00,,,0.00,Wunderground v.1.15,2013-02-21 07:40:00,
2013-02-20 23:45:00,40.3,38.2,29.97,SSW,200,0.0,0.0,92,0.00,,,0.00,Wunderground v.1.15,2013-02-21 07:45:00,
2013-02-20 23:50:00,40.0,37.9,29.96,SSW,200,0.0,0.0,92,0.00,,,0.00,Wunderground v.1.15,2013-02-21 07:50:00,
2013-02-20 23:55:00,39.9,37.8,29.97,SSW,200,0.0,0.0,92,0.00,,,0.00,Wunderground v.1.15,2013-02-21 07:55:00,